This is the latest recevied weather packets stored in our database for station/object AJ4FJ-13. If no packets are shown the sender has not sent any weather packets the latest 10 day(s).
| Time | Temp. | Humidity | Pressure | Rain* | Wind** | Luminosity | Snow |
|---|---|---|---|---|---|---|---|
| 1777334887 | 26.11° C | 43% | 1019 hPa | 0 mm | 0 m/s | - | - |
| 1777332812 | 30° C | 38% | 1020 hPa | 0 mm | 1.34 m/s, 166° | - | - |
| 1777332470 | 30° C | 38% | 1020 hPa | 0 mm | 1.34 m/s, 166° | - | - |
| 1777331256 | 31.11° C | 35% | 1020 hPa | 0 mm | 1.34 m/s, 339° | - | - |
| 1777329736 | 31.67° C | 36% | 1020 hPa | 0 mm | 1.34 m/s, 80° | - | - |
| 1777329429 | 31.11° C | 36% | 1020 hPa | 0 mm | 0 m/s | - | - |
| 1777328522 | 31.11° C | 36% | 1020 hPa | 0 mm | 1.79 m/s, 79° | - | - |
| 1777327918 | 31.11° C | 38% | 1020 hPa | 0 mm | 1.34 m/s, 121° | - | - |
| 1777326406 | 29.44° C | 40% | 1020 hPa | 0 mm | 1.79 m/s, 102° | - | - |
| 1777324886 | 28.89° C | 41% | 1020 hPa | 0 mm | 1.34 m/s, 218° | - | - |
| 1777321249 | 28.33° C | 42% | 1020 hPa | 0 mm | 0 m/s | - | - |
| 1777320947 | 28.33° C | 42% | 1020 hPa | 0 mm | 2.24 m/s, 227° | - | - |
| 1777320036 | 28.33° C | 41% | 1020 hPa | 0 mm | 3.58 m/s, 99° | - | - |
| 1777318823 | 27.78° C | 41% | 1021 hPa | 0 mm | 3.58 m/s, 89° | - | - |
| 1777317005 | 27.78° C | 43% | 1021 hPa | 0 mm | 2.68 m/s, 130° | - | - |
| 1777309438 | 25.56° C | 48% | 1021 hPa | 0 mm | 4.92 m/s, 84° | - | - |
| 1777308523 | 25° C | 50% | 1021 hPa | 0 mm | 1.79 m/s, 208° | - | - |
| 1777304938 | 23.33° C | 56% | 1021 hPa | 0 mm | 2.68 m/s, 142° | - | - |
| 1777304889 | 23.33° C | 56% | 1021 hPa | 0 mm | 2.68 m/s, 142° | - | - |
| 1777301866 | 21.67° C | 58% | 1021 hPa | 0 mm | 2.68 m/s, 198° | - | - |
| 1777300357 | 20.56° C | 61% | 1021 hPa | 0 mm | 2.68 m/s, 96° | - | - |
| 1777299754 | 20.56° C | 62% | 1021 hPa | 0 mm | 1.79 m/s, 88° | - | - |
| 1777296723 | 20.56° C | 62% | 1020 hPa | 0 mm | 2.68 m/s, 53° | - | - |
| 1777292184 | 17.78° C | 78% | 1018 hPa | 0 mm | 3.13 m/s, 102° | - | - |
* Rain latest hour (hover to see other rain measurements)
** Current wind speed in m/s (hover to see current wind gust speed)